Time;durP1;ratioP1;P1;durP2;ratioP2;P2;SDS_P1;SDS_P2;PMS_P1;PMS_P2;Temp;Humidity;BMP_temperature;BMP_pressure;BME280_temperature;BME280_humidity;BME280_pressure;Samples;Min_cycle;Max_cycle;Signal;HPM_P1;HPM_P2
2023/11/07 00:01:43;;;;;;;0.88;0.88;;;;;;;6.39;90.23;98169.63;5073806;28;20036;-79
2023/11/07 00:04:09;;;;;;;0.80;0.80;;;;;;;6.14;91.83;98178.44;5071997;28;20585;-77
2023/11/07 00:06:35;;;;;;;0.80;0.80;;;;;;;6.02;92.32;98169.13;5077939;28;20600;-78
2023/11/07 00:09:00;;;;;;;0.70;0.70;;;;;;;5.85;92.75;98165.81;5073229;28;20051;-79
2023/11/07 00:11:25;;;;;;;0.70;0.70;;;;;;;5.77;93.22;98169.91;5073859;28;20827;-79
2023/11/07 00:13:51;;;;;;;0.70;0.70;;;;;;;5.79;93.42;98173.50;5073233;28;20035;-79
2023/11/07 00:16:16;;;;;;;0.70;0.70;;;;;;;5.75;93.51;98175.13;5075638;28;20059;-79
2023/11/07 00:18:42;;;;;;;0.73;0.73;;;;;;;5.73;93.74;98182.09;5076560;28;20036;-78
2023/11/07 00:21:07;;;;;;;0.70;0.70;;;;;;;5.70;93.86;98187.28;5072802;28;20067;-77
2023/11/07 00:23:33;;;;;;;0.80;0.80;;;;;;;5.70;93.83;98189.94;5072940;28;20362;-77
2023/11/07 00:25:58;;;;;;;0.80;0.80;;;;;;;5.60;93.76;98188.63;5073576;28;20063;-78
2023/11/07 00:28:25;;;;;;;0.80;0.80;;;;;;;5.56;93.91;98186.75;5076675;28;20105;-78
2023/11/07 00:30:54;;;;;;;0.80;0.80;;;;;;;5.51;93.78;98196.25;5060495;28;20043;-77
2023/11/07 00:33:19;;;;;;;0.70;0.70;;;;;;;5.45;93.69;98198.63;5074885;28;20111;-78
2023/11/07 00:35:44;;;;;;;0.80;0.80;;;;;;;5.42;93.74;98193.22;5079509;28;20138;-78
2023/11/07 00:38:10;;;;;;;0.80;0.80;;;;;;;5.40;94.24;98187.84;5070625;28;20599;-79
2023/11/07 00:40:36;;;;;;;0.80;0.80;;;;;;;5.78;93.03;98185.81;5068916;28;20067;-78
2023/11/07 00:43:03;;;;;;;0.80;0.80;;;;;;;5.61;93.14;98179.88;5072206;28;20040;-78
2023/11/07 00:45:29;;;;;;;0.80;0.80;;;;;;;5.89;91.57;98179.22;5079307;28;20566;-79
2023/11/07 00:47:56;;;;;;;0.80;0.80;;;;;;;6.17;90.00;98186.47;5074350;28;20028;-78
2023/11/07 00:50:22;;;;;;;0.77;0.77;;;;;;;5.87;91.21;98175.59;5070638;28;20525;-79
2023/11/07 00:52:47;;;;;;;0.70;0.70;;;;;;;5.84;91.22;98182.50;5074551;28;20036;-79
2023/11/07 00:55:13;;;;;;;0.70;0.70;;;;;;;6.03;90.77;98177.09;5076816;28;20055;-80
2023/11/07 00:57:39;;;;;;;0.80;0.80;;;;;;;5.91;91.17;98187.22;5075879;28;20036;-80
2023/11/07 01:00:05;;;;;;;0.80;0.80;;;;;;;5.90;92.01;98186.31;5055109;28;20029;-78
2023/11/07 01:02:30;;;;;;;0.80;0.80;;;;;;;5.97;91.47;98192.75;5078220;28;20512;-80
2023/11/07 01:04:56;;;;;;;0.80;0.80;;;;;;;6.05;90.72;98195.72;5074449;28;20537;-78
2023/11/07 01:07:21;;;;;;;0.80;0.80;;;;;;;6.04;91.26;98188.63;5073820;28;20450;-78
2023/11/07 01:09:47;;;;;;;0.80;0.80;;;;;;;6.25;89.97;98193.81;5081923;28;20130;-78
2023/11/07 01:12:13;;;;;;;0.80;0.80;;;;;;;6.13;89.43;98192.53;5076855;28;20115;-78
2023/11/07 01:14:39;;;;;;;0.80;0.80;;;;;;;6.04;90.06;98185.97;5075734;28;20032;-78
2023/11/07 01:17:05;;;;;;;0.70;0.70;;;;;;;6.41;87.20;98194.41;5075683;28;20040;-79
2023/11/07 01:19:31;;;;;;;0.80;0.80;;;;;;;6.11;89.46;98193.28;5076285;28;20085;-79
2023/11/07 01:21:56;;;;;;;0.70;0.70;;;;;;;5.98;89.58;98191.91;5061044;28;20443;-79
2023/11/07 01:24:21;;;;;;;0.80;0.80;;;;;;;5.95;89.89;98191.81;5074437;28;20465;-78
2023/11/07 01:26:47;;;;;;;0.80;0.80;;;;;;;5.76;90.11;98190.16;5058185;28;20036;-79
2023/11/07 01:29:17;;;;;;;0.80;0.80;;;;;;;5.85;90.16;98195.81;5076937;28;20040;-79
2023/11/07 01:31:47;;;;;;;0.80;0.80;;;;;;;5.43;91.80;98195.03;5073029;28;20071;-77
2023/11/07 01:34:13;;;;;;;0.80;0.80;;;;;;;5.44;92.23;98185.34;5074253;28;20037;-79
2023/11/07 01:36:38;;;;;;;0.80;0.80;;;;;;;5.47;92.22;98186.38;5074746;28;20043;-79
2023/11/07 01:39:05;;;;;;;0.80;0.80;;;;;;;5.49;91.98;98178.50;5079206;28;20040;-80
2023/11/07 01:41:30;;;;;;;0.85;0.85;;;;;;;5.48;92.02;98189.91;5076193;28;20085;-78
2023/11/07 01:43:56;;;;;;;0.80;0.80;;;;;;;5.39;91.79;98183.41;5062963;28;20071;-80
2023/11/07 01:46:22;;;;;;;0.70;0.70;;;;;;;5.41;92.17;98191.38;5077710;28;20283;-79
2023/11/07 01:48:48;;;;;;;0.80;0.80;;;;;;;5.54;91.67;98184.84;5076970;28;20142;-80
2023/11/07 01:51:14;;;;;;;0.90;0.90;;;;;;;5.36;92.42;98180.63;5077778;28;20085;-80
2023/11/07 01:53:41;;;;;;;0.70;0.70;;;;;;;5.36;92.68;98187.66;5076045;28;20032;-80
2023/11/07 01:56:08;;;;;;;0.70;0.70;;;;;;;5.36;92.50;98195.59;5065920;28;20040;-79
2023/11/07 01:58:34;;;;;;;0.80;0.80;;;;;;;5.35;92.73;98194.69;5080866;28;20294;-78
2023/11/07 02:01:02;;;;;;;0.90;0.90;;;;;;;5.14;92.88;98193.84;5072433;28;20044;-78
2023/11/07 02:03:27;;;;;;;0.88;0.88;;;;;;;5.26;92.40;98196.97;5073798;28;20044;-78
2023/11/07 02:05:53;;;;;;;0.80;0.80;;;;;;;5.16;92.61;98194.78;5074924;28;20071;-78
2023/11/07 02:08:23;;;;;;;0.90;0.90;;;;;;;5.18;92.13;98193.13;5074901;28;20039;-79
2023/11/07 02:10:49;;;;;;;0.88;0.88;;;;;;;5.08;91.97;98201.53;5062440;28;20067;-79
2023/11/07 02:13:15;;;;;;;0.90;0.90;;;;;;;4.85;92.52;98192.59;5074955;28;20037;-79
2023/11/07 02:15:40;;;;;;;0.90;0.90;;;;;;;4.79;92.84;98201.19;5075633;28;20131;-79
2023/11/07 02:18:06;;;;;;;0.80;0.80;;;;;;;4.83;92.95;98210.13;5075595;28;20036;-78
2023/11/07 02:20:36;;;;;;;0.80;0.80;;;;;;;4.86;92.92;98200.59;5071458;28;20127;-78
2023/11/07 02:23:30;;;;;;;0.88;0.88;;;;;;;4.61;93.91;98208.31;5088253;28;20045;-78
2023/11/07 02:25:56;;;;;;;0.80;0.80;;;;;;;4.40;93.62;98213.53;5080626;28;20041;-79
2023/11/07 02:28:22;;;;;;;0.82;0.82;;;;;;;4.29;93.68;98207.78;5072445;28;20028;-79
2023/11/07 02:30:47;;;;;;;0.80;0.80;;;;;;;4.59;94.75;98207.31;5062690;28;20048;-79
2023/11/07 02:33:14;;;;;;;0.82;0.82;;;;;;;4.68;94.38;98191.88;5076430;28;20035;-78
2023/11/07 02:35:42;;;;;;;0.80;0.80;;;;;;;4.78;93.94;98190.53;5073606;28;20148;-79
2023/11/07 02:38:08;;;;;;;0.80;0.80;;;;;;;4.69;93.83;98191.03;5073446;28;20501;-80
2023/11/07 02:40:34;;;;;;;0.80;0.80;;;;;;;4.69;94.13;98192.75;5075839;28;20032;-80
2023/11/07 02:43:06;;;;;;;0.80;0.80;;;;;;;4.54;93.60;98190.38;5075876;28;20040;-79
2023/11/07 02:45:35;;;;;;;0.90;0.90;;;;;;;4.52;93.79;98186.75;5074095;28;20047;-78
2023/11/07 02:48:02;;;;;;;0.80;0.80;;;;;;;4.36;94.13;98183.47;5074950;28;20039;-78
2023/11/07 02:50:27;;;;;;;0.90;0.90;;;;;;;4.31;94.01;98184.06;5059189;28;20042;-78
2023/11/07 02:52:53;;;;;;;0.80;0.80;;;;;;;4.28;94.05;98190.13;5080595;28;20150;-78
2023/11/07 02:55:18;;;;;;;0.80;0.80;;;;;;;4.21;94.25;98192.41;5076699;28;20028;-77
2023/11/07 02:57:44;;;;;;;0.80;0.80;;;;;;;4.20;94.41;98190.59;5073514;28;20044;-78
2023/11/07 03:00:12;;;;;;;0.80;0.80;;;;;;;4.49;94.66;98187.53;5058801;28;21980;-79
2023/11/07 03:02:39;;;;;;;0.80;0.80;;;;;;;4.70;94.48;98190.22;5072915;28;20063;-78
2023/11/07 03:05:06;;;;;;;0.90;0.90;;;;;;;4.62;94.54;98187.22;5076778;28;20071;-78
2023/11/07 03:07:32;;;;;;;0.80;0.80;;;;;;;4.50;94.05;98196.34;5075417;28;20051;-79
2023/11/07 03:09:58;;;;;;;0.80;0.80;;;;;;;4.43;94.24;98195.19;5073759;28;20807;-78
2023/11/07 03:12:24;;;;;;;0.90;0.90;;;;;;;4.40;94.36;98197.69;5079106;28;20113;-78
2023/11/07 03:14:49;;;;;;;0.80;0.80;;;;;;;4.41;94.02;98201.22;5074621;28;20524;-79
2023/11/07 03:17:15;;;;;;;0.80;0.80;;;;;;;4.26;94.39;98199.69;5078785;28;20044;-78
2023/11/07 03:19:41;;;;;;;0.80;0.80;;;;;;;4.57;94.00;98196.69;5073369;28;20044;-78
2023/11/07 03:22:06;;;;;;;0.80;0.80;;;;;;;4.66;93.50;98190.91;5062225;28;20563;-79
2023/11/07 03:24:32;;;;;;;0.90;0.90;;;;;;;4.63;93.36;98198.69;5074817;28;20525;-79
2023/11/07 03:26:59;;;;;;;0.90;0.90;;;;;;;4.61;93.54;98196.00;5077430;28;20040;-79
2023/11/07 03:29:24;;;;;;;0.80;0.80;;;;;;;5.13;92.32;98189.38;5069513;28;20374;-79
2023/11/07 03:31:53;;;;;;;0.90;0.90;;;;;;;5.74;88.53;98175.94;5072200;28;20263;-78
2023/11/07 03:34:19;;;;;;;0.90;0.90;;;;;;;5.87;88.38;98178.25;5072697;28;20035;-78
2023/11/07 03:36:44;;;;;;;0.85;0.85;;;;;;;6.37;86.44;98174.00;5058521;28;20532;-78
2023/11/07 03:39:10;;;;;;;0.80;0.80;;;;;;;6.75;84.03;98170.88;5073450;28;20042;-78
2023/11/07 03:41:40;;;;;;;0.90;0.90;;;;;;;6.80;84.09;98174.59;5072232;28;20036;-78
2023/11/07 03:44:07;;;;;;;0.80;0.80;;;;;;;6.96;82.83;98166.34;5075039;28;20042;-78
2023/11/07 03:46:32;;;;;;;0.70;0.70;;;;;;;7.10;81.87;98170.34;5076020;28;21730;-79
2023/11/07 03:48:58;;;;;;;0.80;0.80;;;;;;;6.94;82.53;98163.59;5074810;28;20044;-79
2023/11/07 03:51:23;;;;;;;0.80;0.80;;;;;;;7.23;80.91;98166.34;5071394;28;20036;-79
2023/11/07 03:53:48;;;;;;;0.80;0.80;;;;;;;7.21;80.82;98162.75;5061463;28;20036;-78
2023/11/07 03:56:14;;;;;;;0.70;0.70;;;;;;;7.17;81.11;98164.38;5078527;28;20164;-78
2023/11/07 03:58:40;;;;;;;0.77;0.77;;;;;;;7.32;80.24;98166.63;5079956;28;20028;-78
2023/11/07 04:01:06;;;;;;;0.80;0.80;;;;;;;7.19;80.68;98164.47;5076227;28;20184;-79
2023/11/07 04:03:31;;;;;;;0.70;0.70;;;;;;;7.15;80.66;98157.25;5074549;28;20036;-78
2023/11/07 04:05:57;;;;;;;0.80;0.80;;;;;;;6.94;81.67;98174.22;5071943;28;20043;-78
2023/11/07 04:08:22;;;;;;;0.70;0.70;;;;;;;6.82;81.90;98171.16;5072168;28;20036;-78
2023/11/07 04:10:47;;;;;;;0.80;0.80;;;;;;;6.60;82.52;98187.16;5078395;28;20074;-78
2023/11/07 04:13:13;;;;;;;0.80;0.80;;;;;;;6.37;83.69;98184.59;5070204;28;20048;-79
2023/11/07 04:15:38;;;;;;;0.80;0.80;;;;;;;6.77;81.68;98193.06;5073652;28;20515;-79
2023/11/07 04:18:04;;;;;;;0.70;0.70;;;;;;;6.48;82.80;98186.72;5072039;28;20123;-78
2023/11/07 04:20:32;;;;;;;0.80;0.80;;;;;;;6.25;83.48;98199.13;5073262;28;20685;-77
2023/11/07 04:22:58;;;;;;;0.90;0.90;;;;;;;6.52;82.45;98194.84;5073611;28;20048;-77
2023/11/07 04:25:23;;;;;;;0.82;0.82;;;;;;;6.78;80.94;98195.75;5073701;28;20042;-78
2023/11/07 04:27:49;;;;;;;0.80;0.80;;;;;;;6.54;81.92;98189.59;5072847;28;20073;-79
2023/11/07 04:30:16;;;;;;;0.80;0.80;;;;;;;6.44;81.78;98193.66;5077858;28;20104;-78
2023/11/07 04:32:42;;;;;;;0.80;0.80;;;;;;;6.26;82.34;98196.50;5071753;28;20040;-77
2023/11/07 04:35:09;;;;;;;0.80;0.80;;;;;;;6.49;82.09;98199.13;5069670;28;20037;-78
2023/11/07 04:37:36;;;;;;;0.80;0.80;;;;;;;6.53;81.31;98201.03;5073119;28;20093;-78
2023/11/07 04:40:02;;;;;;;0.80;0.80;;;;;;;6.57;81.37;98192.34;5073740;28;20036;-78
2023/11/07 04:42:28;;;;;;;0.90;0.90;;;;;;;6.43;82.05;98200.69;5071946;28;20489;-77
2023/11/07 04:44:53;;;;;;;0.85;0.85;;;;;;;6.17;83.12;98193.50;5072850;28;20043;-78
2023/11/07 04:47:20;;;;;;;0.80;0.80;;;;;;;6.24;82.73;98189.38;5072153;28;20649;-77
2023/11/07 04:49:46;;;;;;;0.90;0.90;;;;;;;6.15;83.70;98189.94;5070816;28;20028;-78
2023/11/07 04:52:11;;;;;;;0.90;0.90;;;;;;;6.30;82.84;98193.13;5069585;28;20491;-79
2023/11/07 04:54:38;;;;;;;0.90;0.90;;;;;;;6.25;84.16;98189.41;5070609;28;20036;-78
2023/11/07 04:57:05;;;;;;;0.80;0.80;;;;;;;6.49;82.13;98183.22;5070845;28;20108;-79
2023/11/07 04:59:31;;;;;;;0.80;0.80;;;;;;;6.45;82.69;98190.16;5071995;28;20490;-78
2023/11/07 05:01:57;;;;;;;0.80;0.80;;;;;;;6.46;81.84;98189.28;5072369;28;20043;-78
2023/11/07 05:04:22;;;;;;;0.80;0.80;;;;;;;6.71;81.49;98196.41;5059923;28;20067;-79
2023/11/07 05:06:47;;;;;;;0.80;0.80;;;;;;;6.53;82.17;98196.63;5073783;28;20373;-79
2023/11/07 05:09:14;;;;;;;0.80;0.80;;;;;;;6.46;82.28;98193.69;5073929;28;20089;-78
2023/11/07 05:11:40;;;;;;;0.85;0.85;;;;;;;6.57;81.02;98192.34;5074097;28;20111;-78
2023/11/07 05:14:09;;;;;;;0.80;0.80;;;;;;;6.12;83.38;98195.09;5075527;28;20044;-78
2023/11/07 05:16:36;;;;;;;0.80;0.80;;;;;;;5.95;84.12;98199.75;5063151;28;20032;-79
2023/11/07 05:19:02;;;;;;;0.80;0.80;;;;;;;6.13;83.06;98197.81;5078984;28;20041;-79
2023/11/07 05:21:28;;;;;;;0.90;0.90;;;;;;;5.95;83.33;98204.16;5074873;28;20059;-78
2023/11/07 05:23:53;;;;;;;0.80;0.80;;;;;;;5.93;83.81;98205.81;5070835;28;20118;-78
2023/11/07 05:26:19;;;;;;;0.80;0.80;;;;;;;5.86;83.84;98194.97;5074116;28;20033;-78
2023/11/07 05:28:44;;;;;;;0.80;0.80;;;;;;;5.69;84.35;98204.00;5069500;28;20040;-77
2023/11/07 05:31:10;;;;;;;0.80;0.80;;;;;;;5.47;84.60;98202.25;5068246;28;20048;-79
2023/11/07 05:33:36;;;;;;;0.80;0.80;;;;;;;5.23;85.46;98202.16;5076716;28;20111;-79
2023/11/07 05:36:02;;;;;;;0.90;0.90;;;;;;;4.98;86.29;98201.94;5070492;28;20046;-80
2023/11/07 05:38:27;;;;;;;0.80;0.80;;;;;;;4.97;87.07;98205.44;5073303;28;20066;-79
2023/11/07 05:40:53;;;;;;;0.80;0.80;;;;;;;5.80;83.25;98200.03;5069784;28;20964;-79
2023/11/07 05:43:19;;;;;;;0.80;0.80;;;;;;;5.53;84.15;98198.94;5068762;28;20039;-78
2023/11/07 05:45:45;;;;;;;0.80;0.80;;;;;;;5.36;84.35;98203.53;5069851;28;20047;-78
2023/11/07 05:48:11;;;;;;;0.80;0.80;;;;;;;5.59;83.69;98209.75;5076033;28;20392;-78
2023/11/07 05:50:37;;;;;;;0.90;0.90;;;;;;;5.46;83.62;98210.09;5071668;28;20065;-78
2023/11/07 05:53:03;;;;;;;0.80;0.80;;;;;;;5.61;84.02;98203.69;5072421;28;20040;-78
2023/11/07 05:55:28;;;;;;;0.80;0.80;;;;;;;5.68;83.48;98211.88;5080429;28;20024;-78
2023/11/07 05:57:54;;;;;;;0.80;0.80;;;;;;;6.21;81.08;98213.97;5072437;28;20088;-78
2023/11/07 06:00:20;;;;;;;0.90;0.90;;;;;;;6.20;81.24;98206.88;5078165;28;20036;-78
2023/11/07 06:02:46;;;;;;;0.90;0.90;;;;;;;6.51;79.91;98211.56;5073345;28;20036;-78
2023/11/07 06:05:11;;;;;;;0.80;0.80;;;;;;;6.61;79.76;98213.72;5077064;28;20048;-78
2023/11/07 06:07:38;;;;;;;0.80;0.80;;;;;;;6.97;77.42;98212.31;5077904;28;20479;-78
2023/11/07 06:10:04;;;;;;;0.80;0.80;;;;;;;6.79;78.38;98218.75;5080521;28;20115;-79
2023/11/07 06:12:29;;;;;;;0.80;0.80;;;;;;;6.69;79.09;98213.97;5074536;28;20806;-79
2023/11/07 06:14:55;;;;;;;0.80;0.80;;;;;;;6.50;80.26;98224.75;5072428;28;20681;-79
2023/11/07 06:17:21;;;;;;;0.80;0.80;;;;;;;6.46;80.04;98220.19;5074053;28;20054;-78
2023/11/07 06:19:47;;;;;;;0.90;0.90;;;;;;;6.50;79.48;98212.41;5074864;28;20758;-78
2023/11/07 06:22:13;;;;;;;0.80;0.80;;;;;;;6.50;80.13;98222.13;5074067;28;20039;-79
2023/11/07 06:24:39;;;;;;;0.80;0.80;;;;;;;6.58;79.52;98221.56;5075104;28;20039;-79
2023/11/07 06:27:04;;;;;;;0.80;0.80;;;;;;;6.61;80.04;98220.75;5075666;28;20035;-79
2023/11/07 06:29:30;;;;;;;0.80;0.80;;;;;;;6.64;79.45;98227.06;5070278;28;20048;-80
2023/11/07 06:31:55;;;;;;;0.80;0.80;;;;;;;6.67;79.24;98229.84;5071864;28;20109;-79
2023/11/07 06:34:21;;;;;;;0.70;0.70;;;;;;;6.81;77.88;98230.34;5071996;28;20501;-79
2023/11/07 06:36:47;;;;;;;0.80;0.80;;;;;;;6.81;78.71;98227.69;5077534;28;20133;-80
2023/11/07 06:39:15;;;;;;;0.80;0.80;;;;;;;6.83;78.60;98241.00;5073106;28;20040;-79
2023/11/07 06:41:41;;;;;;;0.80;0.80;;;;;;;6.81;78.70;98237.41;5073663;28;20130;-79
2023/11/07 06:44:08;;;;;;;0.80;0.80;;;;;;;6.93;77.61;98238.72;5075371;28;20037;-79
2023/11/07 06:46:44;;;;;;;0.80;0.80;;;;;;;6.96;77.56;98240.59;5074288;28;20132;-80
2023/11/07 06:49:09;;;;;;;0.80;0.80;;;;;;;7.04;77.45;98246.13;5080216;28;20156;-79
2023/11/07 06:51:35;;;;;;;0.80;0.80;;;;;;;7.13;77.38;98233.19;5075868;28;20545;-79
2023/11/07 06:54:04;;;;;;;0.80;0.80;;;;;;;7.26;76.46;98240.75;5073041;28;20509;-79
2023/11/07 06:56:30;;;;;;;0.75;0.75;;;;;;;7.33;75.59;98231.22;5063047;28;20044;-79
2023/11/07 06:58:55;;;;;;;0.80;0.80;;;;;;;7.27;75.34;98234.56;5076136;28;20389;-79
2023/11/07 07:01:25;;;;;;;0.77;0.77;;;;;;;7.27;75.69;98239.88;5074572;28;20724;-80
2023/11/07 07:03:53;;;;;;;0.80;0.80;;;;;;;7.24;77.09;98239.81;5063458;28;20364;-79
2023/11/07 07:06:19;;;;;;;0.80;0.80;;;;;;;7.29;75.85;98232.91;5075089;28;20032;-79
2023/11/07 07:08:44;;;;;;;0.70;0.70;;;;;;;7.32;75.99;98234.72;5074805;28;20406;-78
2023/11/07 07:11:10;;;;;;;0.80;0.80;;;;;;;7.48;75.52;98230.88;5095097;28;20123;-78
2023/11/07 07:13:35;;;;;;;0.80;0.80;;;;;;;7.87;73.15;98236.56;5061584;28;20039;-79
2023/11/07 07:16:03;;;;;;;0.70;0.70;;;;;;;8.19;73.95;98241.13;5077058;28;20043;-79
2023/11/07 07:18:28;;;;;;;0.73;0.73;;;;;;;8.06;72.62;98238.03;5061019;28;20032;-79
2023/11/07 07:20:55;;;;;;;0.70;0.70;;;;;;;7.97;72.27;98233.34;5074632;28;20058;-80
2023/11/07 07:23:24;;;;;;;0.73;0.73;;;;;;;8.09;72.81;98243.41;5076883;28;20645;-79
2023/11/07 07:25:55;;;;;;;0.80;0.80;;;;;;;8.36;72.02;98240.72;5076184;28;20028;-80
2023/11/07 07:28:21;;;;;;;0.70;0.70;;;;;;;8.08;72.34;98249.59;5075705;28;20078;-78
2023/11/07 07:30:48;;;;;;;0.70;0.70;;;;;;;8.01;72.97;98250.28;5077315;28;20404;-80
2023/11/07 07:33:19;;;;;;;0.70;0.70;;;;;;;7.86;73.43;98259.56;5077515;28;20035;-79
2023/11/07 07:35:47;;;;;;;0.70;0.70;;;;;;;7.84;74.18;98247.97;5079449;28;20043;-78
2023/11/07 07:38:12;;;;;;;0.70;0.70;;;;;;;7.85;73.00;98248.88;5082469;28;20028;-79
2023/11/07 07:40:38;;;;;;;0.70;0.70;;;;;;;7.91;73.20;98249.97;5074054;28;20562;-80
2023/11/07 07:43:10;;;;;;;0.70;0.70;;;;;;;8.01;72.69;98248.50;5075258;28;20439;-79
2023/11/07 07:45:39;;;;;;;0.90;0.90;;;;;;;8.61;70.82;98251.22;5077097;28;20040;-79
2023/11/07 07:48:06;;;;;;;0.70;0.70;;;;;;;9.37;67.77;98249.78;5073463;28;20090;-78
2023/11/07 07:50:32;;;;;;;;;;;;;;;9.54;66.71;98252.00;5077708;28;20071;-76
2023/11/07 07:53:01;;;;;;;0.70;0.70;;;;;;;10.61;64.06;98246.53;5072955;28;20044;-78
2023/11/07 07:55:27;;;;;;;0.65;0.65;;;;;;;10.86;62.04;98251.50;5063644;28;20048;-79
2023/11/07 07:58:00;;;;;;;0.70;0.70;;;;;;;11.92;59.49;98240.97;5076169;28;20043;-78
2023/11/07 08:00:30;;;;;;;0.60;0.60;;;;;;;10.19;63.78;98247.34;5080457;28;20032;-78
2023/11/07 08:02:57;;;;;;;0.50;0.50;;;;;;;9.87;65.59;98249.25;5075889;28;20119;-78
2023/11/07 08:05:23;;;;;;;0.60;0.60;;;;;;;10.49;65.27;98255.16;5074268;28;20071;-79
2023/11/07 08:07:48;;;;;;;0.60;0.60;;;;;;;11.71;60.53;98241.50;5078954;28;20064;-79
2023/11/07 08:10:17;;;;;;;0.50;0.50;;;;;;;11.14;62.11;98250.25;5070731;28;20786;-77
2023/11/07 08:12:44;;;;;;;0.50;0.50;;;;;;;10.94;62.94;98254.31;5060678;28;20114;-78
2023/11/07 08:15:10;;;;;;;0.60;0.60;;;;;;;10.48;64.56;98256.91;5074389;28;20028;-78
2023/11/07 08:17:36;;;;;;;0.52;0.52;;;;;;;9.99;64.69;98253.09;5072191;28;20033;-78
2023/11/07 08:20:14;;;;;;;0.50;0.50;;;;;;;10.57;62.42;98258.88;5075912;28;20051;-77
2023/11/07 08:22:44;;;;;;;0.52;0.52;;;;;;;10.37;62.73;98252.22;5072819;28;20036;-78
2023/11/07 08:25:10;;;;;;;0.50;0.50;;;;;;;10.22;63.14;98248.31;5082975;28;20035;-76
2023/11/07 08:27:44;;;;;;;0.60;0.60;;;;;;;10.14;63.28;98244.56;5068947;28;20041;-76
2023/11/07 08:30:16;;;;;;;0.60;0.60;;;;;;;10.35;63.26;98252.19;5062358;28;20048;-76
2023/11/07 08:32:43;;;;;;;0.50;0.50;;;;;;;10.37;62.81;98258.47;5071460;28;20041;-76
2023/11/07 08:35:15;;;;;;;0.60;0.60;;;;;;;10.31;63.36;98255.66;5069664;28;20574;-77
2023/11/07 08:37:49;;;;;;;0.60;0.60;;;;;;;10.58;61.82;98254.44;5075292;28;20036;-77
2023/11/07 08:40:17;;;;;;;0.60;0.60;;;;;;;10.37;65.52;98268.22;5073725;28;20044;-78
2023/11/07 08:42:44;;;;;;;0.60;0.60;;;;;;;10.26;65.10;98268.00;5074824;28;20099;-78
2023/11/07 08:45:15;;;;;;;0.60;0.60;;;;;;;10.85;62.73;98268.38;5074937;28;20122;-79
2023/11/07 08:47:45;;;;;;;0.52;0.52;;;;;;;10.78;62.60;98266.47;5069321;28;20039;-78
2023/11/07 08:50:12;;;;;;;0.50;0.50;;;;;;;10.78;62.00;98277.13;5070509;28;20505;-77
2023/11/07 08:52:38;;;;;;;0.50;0.50;;;;;;;10.82;61.83;98270.06;5071608;28;20407;-77
2023/11/07 08:55:05;;;;;;;0.60;0.60;;;;;;;10.58;62.78;98273.13;5072867;28;20044;-78
2023/11/07 08:57:31;;;;;;;0.60;0.60;;;;;;;10.48;62.77;98278.25;5074992;28;20130;-78
2023/11/07 08:59:57;;;;;;;0.60;0.60;;;;;;;10.68;62.13;98281.38;5071862;28;20296;-79
2023/11/07 09:02:23;;;;;;;0.60;0.60;;;;;;;10.28;64.30;98279.56;5072673;28;20041;-79
2023/11/07 09:04:48;;;;;;;0.60;0.60;;;;;;;10.51;62.94;98272.09;5077555;28;20048;-78
2023/11/07 09:07:16;;;;;;;0.60;0.60;;;;;;;10.34;62.84;98287.72;5071243;28;20123;-78
2023/11/07 09:09:42;;;;;;;0.50;0.50;;;;;;;11.08;61.21;98281.28;5070107;28;20058;-77
2023/11/07 09:12:10;;;;;;;0.60;0.60;;;;;;;10.69;61.77;98282.28;5072033;28;20115;-78
2023/11/07 09:14:35;;;;;;;;;;;;;;;10.60;62.83;98290.06;5078800;28;20047;-78
2023/11/07 09:17:01;;;;;;;0.60;0.60;;;;;;;10.60;63.43;98288.31;5072449;28;19943;-77
2023/11/07 09:19:27;;;;;;;0.57;0.57;;;;;;;10.49;64.15;98296.09;5071188;28;20042;-79
2023/11/07 09:21:52;;;;;;;0.60;0.60;;;;;;;10.14;65.09;98291.66;5073732;28;20082;-79
2023/11/07 09:24:18;;;;;;;0.60;0.60;;;;;;;10.03;66.73;98297.63;5074371;28;20049;-79
2023/11/07 09:26:43;;;;;;;0.60;0.60;;;;;;;9.68;68.31;98306.53;5071398;28;20040;-79
2023/11/07 09:29:09;;;;;;;0.60;0.60;;;;;;;9.64;68.39;98309.97;5074407;28;20032;-79
2023/11/07 09:31:34;;;;;;;0.63;0.63;;;;;;;9.61;69.29;98316.09;5074420;28;20141;-79
2023/11/07 09:34:00;;;;;;;0.70;0.70;;;;;;;9.47;68.99;98314.81;5076228;28;20041;-79
2023/11/07 09:36:26;;;;;;;0.60;0.60;;;;;;;9.47;69.68;98317.50;5090830;28;20359;-79
2023/11/07 09:38:52;;;;;;;0.70;0.70;;;;;;;9.52;71.07;98315.84;5074767;28;20032;-79
2023/11/07 09:41:17;;;;;;;0.60;0.60;;;;;;;9.50;70.06;98320.25;5078971;28;20047;-81
2023/11/07 09:43:46;;;;;;;0.70;0.70;;;;;;;9.44;70.59;98323.66;5079288;28;20043;-79
2023/11/07 09:46:13;;;;;;;0.70;0.70;;;;;;;9.76;71.94;98304.94;5075875;28;20043;-79
2023/11/07 09:48:39;;;;;;;0.80;0.80;;;;;;;10.10;70.63;98311.09;5075227;28;20075;-79
2023/11/07 09:51:07;;;;;;;0.70;0.70;;;;;;;10.37;69.43;98309.13;5076699;28;20064;-78
2023/11/07 09:53:35;;;;;;;0.70;0.70;;;;;;;10.41;67.14;98303.00;5076911;28;20044;-78
2023/11/07 09:56:03;;;;;;;0.60;0.60;;;;;;;10.28;66.62;98300.91;5075227;28;20043;-78
2023/11/07 09:58:29;;;;;;;0.70;0.70;;;;;;;10.42;67.07;98304.78;5064628;28;20040;-79
2023/11/07 10:00:58;;;;;;;0.60;0.60;;;;;;;10.63;65.60;98300.78;5075619;28;20070;-77
2023/11/07 10:03:24;;;;;;;0.70;0.70;;;;;;;10.68;63.89;98305.41;5076493;28;20453;-79
2023/11/07 10:05:51;;;;;;;0.70;0.70;;;;;;;10.43;65.14;98301.25;5075854;28;20620;-78
2023/11/07 10:08:22;;;;;;;0.63;0.63;;;;;;;10.68;63.84;98285.78;5077235;28;20028;-79
2023/11/07 10:11:10;;;;;;;0.70;0.70;;;;;;;10.96;64.42;98292.59;5076577;28;20040;-77
2023/11/07 10:13:35;;;;;;;0.60;0.60;;;;;;;11.36;62.97;98296.09;5076815;28;20161;-78
2023/11/07 10:16:08;;;;;;;0.65;0.65;;;;;;;11.67;61.35;98302.88;5075917;28;20764;-78
2023/11/07 10:18:49;;;;;;;0.60;0.60;;;;;;;11.36;61.43;98298.75;5063131;28;20048;-78
2023/11/07 10:21:29;;;;;;;0.60;0.60;;;;;;;11.22;60.63;98290.47;5075986;28;20767;-77
2023/11/07 10:23:54;;;;;;;0.60;0.60;;;;;;;11.48;61.38;98280.28;5079034;28;20549;-79
2023/11/07 10:26:20;;;;;;;0.60;0.60;;;;;;;11.66;61.51;98277.94;5077556;28;20044;-78
2023/11/07 10:28:46;;;;;;;0.60;0.60;;;;;;;11.54;60.21;98277.69;5076156;28;20039;-79
2023/11/07 10:31:19;;;;;;;0.50;0.50;;;;;;;11.48;59.47;98274.94;5073471;28;20032;-80
2023/11/07 10:33:44;;;;;;;0.50;0.50;;;;;;;12.09;59.50;98272.44;5073414;28;20066;-80
2023/11/07 10:36:10;;;;;;;0.60;0.60;;;;;;;11.81;59.83;98288.88;5089614;28;20044;-79
2023/11/07 10:38:38;;;;;;;0.50;0.50;;;;;;;11.92;58.79;98282.84;5075075;28;20123;-78
2023/11/07 10:41:04;;;;;;;0.50;0.50;;;;;;;11.68;59.80;98269.94;5059790;28;20397;-81
2023/11/07 10:43:37;;;;;;;0.50;0.50;;;;;;;11.54;59.73;98262.56;5073533;28;20032;-80
2023/11/07 10:46:03;;;;;;;0.55;0.55;;;;;;;11.36;61.12;98262.25;5076622;28;20058;-80
2023/11/07 10:48:33;;;;;;;0.50;0.50;;;;;;;11.32;60.96;98256.84;5076847;28;20037;-80
2023/11/07 10:51:03;;;;;;;0.50;0.50;;;;;;;11.26;61.30;98265.63;5076066;28;20043;-79
2023/11/07 10:53:33;;;;;;;0.60;0.60;;;;;;;11.45;61.67;98250.81;5075788;28;20040;-79
2023/11/07 10:55:59;;;;;;;0.60;0.60;;;;;;;11.44;60.70;98247.25;5088253;28;20703;-80
2023/11/07 10:58:32;;;;;;;0.60;0.60;;;;;;;11.46;61.12;98237.50;5071970;28;20480;-80
2023/11/07 11:01:05;;;;;;;0.60;0.60;;;;;;;11.68;61.44;98246.78;5075983;28;20036;-80
2023/11/07 11:03:34;;;;;;;0.60;0.60;;;;;;;11.69;60.89;98236.97;5073778;28;20043;-80
2023/11/07 11:06:02;;;;;;;0.50;0.50;;;;;;;11.81;60.55;98239.88;5088341;28;20452;-80
2023/11/07 11:08:29;;;;;;;0.50;0.50;;;;;;;11.67;60.93;98242.31;5072796;28;20180;-79
2023/11/07 11:10:57;;;;;;;0.50;0.50;;;;;;;11.46;61.31;98231.28;5075678;28;20047;-80
2023/11/07 11:13:26;;;;;;;0.50;0.50;;;;;;;11.35;61.96;98238.16;5076380;28;20037;-80
2023/11/07 11:15:53;;;;;;;0.50;0.50;;;;;;;11.35;62.76;98233.72;5075376;28;20033;-80
2023/11/07 11:18:39;;;;;;;0.60;0.60;;;;;;;11.04;63.68;98249.19;5072371;28;20060;-81
2023/11/07 11:21:16;;;;;;;0.50;0.50;;;;;;;11.03;63.45;98246.50;5072592;28;20044;-80
2023/11/07 11:23:56;;;;;;;0.55;0.55;;;;;;;11.07;63.89;98248.38;5073838;28;20055;-80
2023/11/07 11:26:58;;;;;;;0.60;0.60;;;;;;;10.88;63.82;98260.44;5073378;28;20737;-80
2023/11/07 11:29:30;;;;;;;0.60;0.60;;;;;;;10.85;63.41;98262.13;5072988;28;20086;-80
2023/11/07 11:31:56;;;;;;;0.60;0.60;;;;;;;10.72;63.57;98260.97;5073236;28;20036;-80
2023/11/07 11:34:25;;;;;;;0.60;0.60;;;;;;;10.79;63.65;98265.59;5072830;28;20405;-80
2023/11/07 11:36:53;;;;;;;0.60;0.60;;;;;;;10.60;64.75;98269.63;5073806;28;20040;-79
2023/11/07 11:39:33;;;;;;;0.60;0.60;;;;;;;10.50;64.96;98271.19;5073631;28;20115;-80